Weather observations for the past three days for
Ephrata, Ephrata Municipal Airport
Metric (Imperial)
Date Time (pdt) Wind (kph) Vis. (km) Weather Sky Cond. Temperature (ºC) Relative Humidity Wind Chill (°C) Heat Index (°C) Pressure Precipitation (cm)
Air Dwpt 6 hour altimeter (cm) sea level (mb) 1 hr 3 hr 6 hr
Max. Min.
06 00:53 NW 9 16.09 Fair CLR 17.8 6.1 46% 75.77 1009.5
05 23:53 Calm 16.09 Fair CLR 15.6 7.2 58% 75.77 1009.5
05 22:53 Vrbl 6 16.09 Fair CLR 14.4 6.7 28.3 14.4 60% 75.74 1009.1
05 21:53 SW 13 16.09 Fair CLR 16.7 7.2 54% 75.72 1009.1
05 20:53 SW 15 16.09 Fair CLR 18.9 7.8 49% 75.72 1008.8
05 19:53 SW 13 16.09 Fair CLR 22.8 6.7 35% 75.69 1008.3
05 18:53 SW 17 16.09 Fair CLR 26.7 5 25% 26 75.67 1008.1
05 17:53 S 19 16.09 Fair CLR 28.3 4.4 22% 27 75.69 1008.4
05 16:53 Vrbl 11 16.09 Fair CLR 28.3 3.9 28.3 22.8 21% 27 75.72 1008.6
05 15:53 Vrbl 6 16.09 Fair CLR 28.3 3.3 20% 27 75.77 1009.3
05 14:53 W 11 16.09 Fair CLR 27.2 3.3 21% 26 75.82 1010.0
05 13:53 Vrbl 11 16.09 Fair CLR 27.2 3.3 21% 26 75.84 1010.4
05 12:53 E 13 16.09 Fair CLR 26.1 3.9 24% 26 75.9 1011.0
05 11:53 Vrbl 6 16.09 Fair CLR 24.4 2.8 25% 25 75.92 1011.4
05 10:53 N 9 16.09 Fair CLR 22.8 3.3 23.3 13.3 28% 75.92 1011.6
05 09:53 Vrbl 11 16.09 Fair CLR 21.7 4.4 32% 75.95 1011.8
05 08:53 NE 11 16.09 Fair CLR 19.4 3.9 36% 75.95 1011.8
05 07:53 NE 15 16.09 Fair CLR 18.3 3.3 37% 75.92 1011.4
05 06:53 N 15 16.09 Fair CLR 16.1 4.4 46% 75.87 1010.8
05 05:53 N 15 16.09 Fair CLR 13.9 3.9 51% 75.82 1010.2
05 04:53 NE 11 16.09 Fair CLR 14.4 3.9 20.6 12.8 50% 75.77 1009.5
05 03:53 N 11 16.09 Fair CLR 13.3 4.4 55% 75.74 1009.0
05 02:53 N 11 16.09 Fair CLR 15 4.4 49% 75.69 1008.3
05 01:53 NW 11 16.09 Fair CLR 17.8 4.4 41% 75.67 1007.9
05 00:53 N 20 16.09 Fair CLR 17.8 5 43% 75.64 1007.5
04 23:53 N 15 16.09 Fair CLR 18.3 5.6 43% 75.59 1006.9
04 22:53 N 19 16.09 Fair CLR 19.4 5.6 30.6 19.4 41% 75.54 1006.3
04 21:53 N 15 16.09 Fair CLR 21.1 4.4 34% 75.49 1005.7
04 20:53 NW 13 16.09 Fair CLR 23.3 3.9 28% 75.44 1005.0
04 19:53 N 7 16.09 Fair CLR 25 5 28% 25 75.41 1004.6
04 18:53 NE 9 16.09 Partly Cloudy SCT120 26.7 3.9 23% 26 75.41 1004.4
04 17:53 NE 11 16.09 A Few Clouds FEW120 27.8 2.2 19% 27 75.41 1004.6
04 16:53 Vrbl 11 G 30 16.09 Fair CLR 30.6 1.7 31.1 27.8 16% 29 75.41 1004.4
04 15:53 Calm 16.09 Fair CLR 30 1.1 15% 28 75.46 1005.1
04 14:53 NE 19 16.09 Fair CLR 30 0.6 15% 28 75.49 1005.5
04 13:53 Calm 16.09 Fair CLR 29.4 0 15% 28 75.54 1006.1
04 12:53 N 30 G 37 16.09 Fair CLR 30 0.6 15% 28 75.57 1006.4
04 11:53 N 28 G 43 16.09 Fair CLR 28.9 1.1 17% 27 75.59 1006.8
04 10:53 N 30 G 43 16.09 Fair CLR 27.8 0 28.3 17.8 16% 27 75.62 1007.3
04 09:53 N 26 G 43 16.09 Fair CLR 26.7 0 17% 26 75.62 1007.4
04 08:53 N 24 G 35 16.09 Fair CLR 24.4 1.7 23% 25 75.64 1007.7
04 07:53 N 28 16.09 Fair CLR 21.7 2.2 28% 75.64 1007.4
04 06:53 N 17 16.09 Fair CLR 18.9 2.8 34% 75.62 1007.3
04 05:53 N 20 16.09 Fair CLR 17.8 2.2 35% 75.59 1006.9
04 04:53 N 19 16.09 Fair CLR 18.3 2.8 22.8 15 36% 75.59 1006.8
04 03:53 NW 9 16.09 Fair CLR 17.2 3.3 40% 75.62 1007.1
04 02:53 N 9 16.09 Fair CLR 17.2 4.4 43% 75.59 1007.0
04 01:53 N 7 16.09 Fair CLR 16.1 3.9 44% 75.59 1006.8
03 23:53 W 17 16.09 Fair CLR 22.8 2.2 26% 75.59 1006.7
03 22:53 NW 15 16.09 Fair CLR 20.6 3.3 30 15.6 32% 75.62 1007.2
03 21:53 Calm 16.09 Fair CLR 17.8 5.6 45% 75.62 1007.3
03 20:53 SW 6 16.09 Fair CLR 17.2 5.6 47% 75.59 1007.2
03 19:53 W 11 16.09 Fair CLR 23.3 4.4 29% 75.57 1006.8
03 18:53 SW 9 16.09 Fair CLR 27.8 3.3 21% 27 75.59 1007.0
03 17:53 SW 11 16.09 Fair CLR 28.9 2.2 18% 27 75.64 1007.5
03 16:53 W 17 16.09 Fair CLR 29.4 0 30 25.6 15% 28 75.69 1008.2
03 15:53 Vrbl 7 16.09 Fair CLR 28.9 -1.7 13% 27 75.77 1009.2
03 14:53 NE 9 16.09 Fair CLR 28.9 -1.7 13% 27 75.82 1010.1
03 13:53 Vrbl 6 16.09 Fair CLR 28.9 -0.6 15% 27 75.87 1010.7
03 12:53 NE 15 16.09 Fair CLR 27.8 -0.6 16% 27 75.92 1011.4
03 11:53 Calm 16.09 Fair CLR 27.2 3.3 21% 26 75.97 1012.3
03 10:53 E 9 16.09 Fair CLR 26.1 2.2 26.1 15 21% 26 76.02 1012.7
03 09:53 E 6 16.09 Fair CLR 23.9 4.4 28% 25 76.05 1013.3
03 08:53 N 15 16.09 Fair CLR 22.2 4.4 31% 76.07 1013.7
03 07:53 N 19 16.09 Fair CLR 21.1 3.9 32% 76.07 1013.5
03 06:53 NW 13 16.09 Fair CLR 17.8 3.9 40% 76.07 1013.3
03 05:53 NW 15 16.09 Fair CLR 16.1 3.9 44% 76.05 1013.3
03 04:53 NW 17 16.09 Fair CLR 15.6 3.9 18.9 15.6 46% 76.07 1013.4
03 03:53 NW 17 16.09 Fair CLR 17.2 4.4 43% 76.05 1013.0
03 02:53 NW 15 16.09 Fair CLR 17.2 4.4 43% 76.05 1012.9
03 01:53 NW 15 16.09 Fair CLR 18.3 4.4 40% 76.05 1013.0
Date Time (pdt) Wind (kph) Vis. (km) Weather Sky Cond. Air Dwpt Max. Min. Relative Humidity Wind Chill (°C) Heat Index (°C) altimeter (cm) sea level (mb) 1 hr 3 hr 6 hr
6 hour
Temperature (ºC) Pressure Precipitation (cm)